Time;durP1;ratioP1;P1;durP2;ratioP2;P2;SDS_P1;SDS_P2;PMS_P1;PMS_P2;Temp;Humidity;BMP_temperature;BMP_pressure;BME280_temperature;BME280_humidity;BME280_pressure;Samples;Min_cycle;Max_cycle;Signal;HPM_P1;HPM_P2
2021/11/28 00:01:18;;;;;;;89.00;63.50;;;;;;;1.46;100.00;97135.19;102492;1310;70272;-70
2021/11/28 00:03:46;;;;;;;95.40;66.30;;;;;;;1.42;100.00;97131.56;101875;1316;75740;-70
2021/11/28 00:06:26;;;;;;;97.40;67.30;;;;;;;1.40;100.00;97133.79;101961;1317;62225;-71
2021/11/28 00:11:31;;;;;;;107.10;73.90;;;;;;;1.36;100.00;97130.55;102392;1310;75329;-70
2021/11/28 00:16:31;;;;;;;103.20;70.70;;;;;;;1.34;100.00;97125.77;102362;1313;74516;-70
2021/11/28 00:18:58;;;;;;;107.40;76.80;;;;;;;1.33;100.00;97122.00;102360;1313;62219;-70
2021/11/28 00:21:25;;;;;;;109.30;78.50;;;;;;;1.31;100.00;97122.98;102373;1311;62104;-70
2021/11/28 00:23:51;;;;;;;104.40;76.20;;;;;;;1.28;100.00;97120.50;102262;1313;76358;-68
2021/11/28 00:26:18;;;;;;;106.40;76.30;;;;;;;1.26;100.00;97118.73;102421;1311;70491;-70
2021/11/28 00:28:45;;;;;;;116.60;79.00;;;;;;;1.23;100.00;97123.98;102438;1313;73976;-70
2021/11/28 00:31:12;;;;;;;118.40;80.00;;;;;;;1.21;100.00;97133.33;102457;1313;62106;-73
2021/11/28 00:33:39;;;;;;;155.30;92.90;;;;;;;1.19;100.00;97141.88;102521;1310;62018;-70
2021/11/28 00:36:06;;;;;;;125.40;86.50;;;;;;;1.18;100.00;97145.06;102109;1313;76390;-71
2021/11/28 00:38:33;;;;;;;118.80;84.40;;;;;;;1.18;100.00;97148.22;102590;1313;68533;-70
2021/11/28 00:41:00;;;;;;;117.80;81.80;;;;;;;1.21;100.00;97153.48;102646;1311;74491;-69
2021/11/28 00:43:26;;;;;;;118.10;81.60;;;;;;;1.23;100.00;97150.53;102428;1313;62207;-68
2021/11/28 00:45:53;;;;;;;101.60;77.10;;;;;;;1.25;100.00;97150.11;102451;1310;62099;-69
2021/11/28 00:48:23;;;;;;;106.30;74.10;;;;;;;1.26;100.00;97150.55;102421;1311;74395;-71
2021/11/28 00:51:00;;;;;;;;;;;;;;;1.27;100.00;97157.10;102463;1313;69910;-72
2021/11/28 00:53:26;;;;;;;104.30;77.60;;;;;;;1.27;100.00;97152.80;102377;1310;74149;-71
2021/11/28 00:55:53;;;;;;;95.50;70.00;;;;;;;1.25;100.00;97150.92;102392;1310;62072;-72
2021/11/28 00:58:20;;;;;;;95.30;67.60;;;;;;;1.27;100.00;97154.88;102300;1310;62055;-72
2021/11/28 01:00:46;;;;;;;87.40;67.70;;;;;;;1.29;100.00;97161.53;102324;1311;77321;-70
2021/11/28 01:03:13;;;;;;;97.70;76.40;;;;;;;1.32;100.00;97161.39;102350;1314;62944;-72
2021/11/28 01:05:39;;;;;;;106.90;81.80;;;;;;;1.35;100.00;97157.54;102339;1310;74289;-73
2021/11/28 01:08:06;;;;;;;108.50;82.20;;;;;;;1.39;100.00;97161.17;102339;1310;62199;-71
2021/11/28 01:10:33;;;;;;;99.20;78.60;;;;;;;1.42;100.00;97167.30;102018;1313;62190;-70
2021/11/28 01:13:00;;;;;;;100.30;78.60;;;;;;;1.45;100.00;97169.35;102288;1310;76579;-71
2021/11/28 01:15:27;;;;;;;102.50;76.40;;;;;;;1.51;100.00;97180.75;102353;1310;69829;-71
2021/11/28 01:17:54;;;;;;;99.20;73.00;;;;;;;1.55;100.00;97183.84;102285;1310;74561;-70
2021/11/28 01:20:20;;;;;;;108.00;78.90;;;;;;;1.58;100.00;97181.36;102055;1311;62284;-70
2021/11/28 01:22:47;;;;;;;107.10;78.50;;;;;;;1.62;100.00;97178.67;102292;1310;62117;-70
2021/11/28 01:25:14;;;;;;;107.00;78.60;;;;;;;1.66;100.00;97172.16;101860;1316;76192;-70
2021/11/28 01:27:42;;;;;;;98.70;75.60;;;;;;;1.69;100.00;97167.94;102358;1310;70263;-70
2021/11/28 01:30:10;;;;;;;109.50;79.20;;;;;;;1.71;100.00;97168.65;102326;1311;74893;-70
2021/11/28 01:32:39;;;;;;;95.90;69.40;;;;;;;1.74;100.00;97168.13;102304;1313;62120;-69
2021/11/28 01:35:09;;;;;;;97.80;66.20;;;;;;;1.76;100.00;97168.38;102122;1317;62195;-70
2021/11/28 01:37:37;;;;;;;93.70;66.70;;;;;;;1.79;100.00;97164.21;102341;1311;76193;-70
2021/11/28 01:40:06;;;;;;;94.80;63.40;;;;;;;1.80;100.00;97165.15;102293;1310;70440;-70
2021/11/28 01:42:37;;;;;;;93.40;63.30;;;;;;;1.82;100.00;97171.69;102315;1311;74555;-69
2021/11/28 01:45:05;;;;;;;100.10;61.90;;;;;;;1.83;100.00;97171.45;102039;1314;62189;-69
2021/11/28 01:47:32;;;;;;;97.90;64.30;;;;;;;1.84;100.00;97179.82;102380;1311;62105;-69
2021/11/28 01:49:59;;;;;;;102.20;62.50;;;;;;;1.86;100.00;97182.50;102226;1314;76288;-69
2021/11/28 01:52:25;;;;;;;101.60;61.50;;;;;;;1.86;100.00;97186.47;102304;1313;70490;-70
2021/11/28 01:54:52;;;;;;;98.50;62.50;;;;;;;1.87;100.00;97179.63;102362;1310;73993;-69
2021/11/28 01:57:19;;;;;;;91.50;55.30;;;;;;;1.89;100.00;97181.40;102362;1313;62112;-69
2021/11/28 01:59:46;;;;;;;88.10;53.80;;;;;;;1.90;100.00;97175.07;102337;1311;62222;-70
2021/11/28 02:02:13;;;;;;;89.80;52.30;;;;;;;1.90;100.00;97173.15;102295;1311;74878;-70
2021/11/28 02:04:40;;;;;;;88.70;52.20;;;;;;;1.89;100.00;97176.48;102306;1310;69330;-70
2021/11/28 02:07:08;;;;;;;81.30;48.10;;;;;;;1.88;100.00;97182.69;102379;1311;74442;-70
2021/11/28 02:09:38;;;;;;;78.10;47.10;;;;;;;1.87;100.00;97183.13;101933;1313;62147;-70
2021/11/28 02:12:06;;;;;;;87.00;52.20;;;;;;;1.86;100.00;97181.39;102336;1317;62171;-70
2021/11/28 02:14:33;;;;;;;88.20;51.40;;;;;;;1.88;100.00;97175.86;102375;1311;76333;-70
2021/11/28 02:17:00;;;;;;;81.20;46.30;;;;;;;1.90;100.00;97174.17;102301;1310;68766;-71
2021/11/28 02:19:27;;;;;;;80.10;45.70;;;;;;;1.90;100.00;97172.23;102309;1310;73587;-71
2021/11/28 02:21:53;;;;;;;76.30;45.30;;;;;;;1.92;100.00;97169.86;102331;1310;62238;-71
2021/11/28 02:24:20;;;;;;;75.80;45.90;;;;;;;1.92;100.00;97163.39;102326;1310;62189;-71
2021/11/28 02:26:47;;;;;;;76.70;45.60;;;;;;;1.92;100.00;97156.88;102295;1310;76332;-70
2021/11/28 02:29:13;;;;;;;73.60;45.50;;;;;;;1.93;100.00;97156.82;102318;1310;69563;-71
2021/11/28 02:31:40;;;;;;;72.60;44.20;;;;;;;1.94;100.00;97154.64;102448;1310;74455;-71
2021/11/28 02:34:07;;;;;;;73.00;43.90;;;;;;;1.96;100.00;97157.54;102333;1310;62136;-70
2021/11/28 02:36:33;;;;;;;69.60;43.20;;;;;;;1.97;100.00;97162.35;102473;1310;62135;-70
2021/11/28 02:39:00;;;;;;;70.50;42.90;;;;;;;1.97;100.00;97165.35;102381;1313;77273;-71
2021/11/28 02:41:26;;;;;;;71.00;44.50;;;;;;;1.98;100.00;97171.06;102343;1310;67813;-71
2021/11/28 02:43:53;;;;;;;70.90;43.20;;;;;;;2.00;100.00;97168.13;102216;1314;74503;-70
2021/11/28 02:46:20;;;;;;;73.90;43.10;;;;;;;2.02;100.00;97169.41;102340;1310;62257;-69
2021/11/28 02:48:46;;;;;;;67.30;41.90;;;;;;;2.05;100.00;97164.18;102344;1310;62225;-70
2021/11/28 02:51:13;;;;;;;69.30;42.50;;;;;;;2.05;100.00;97161.84;102296;1310;62123;-71
2021/11/28 02:53:39;;;;;;;75.20;44.20;;;;;;;2.07;100.00;97155.81;102321;1310;70924;-71
2021/11/28 02:56:06;;;;;;;70.50;43.40;;;;;;;2.10;100.00;97157.39;101989;1314;72963;-70
2021/11/28 02:58:34;;;;;;;74.30;45.50;;;;;;;2.13;100.00;97154.89;102366;1310;62110;-70
2021/11/28 03:01:14;;;;;;;77.70;48.10;;;;;;;2.15;100.00;97156.67;102322;1310;62104;-71
2021/11/28 03:03:41;;;;;;;76.10;47.80;;;;;;;2.16;100.00;97163.28;102337;1310;76338;-70
2021/11/28 03:06:07;;;;;;;78.80;47.60;;;;;;;2.16;100.00;97163.62;102325;1311;69830;-71
2021/11/28 03:08:34;;;;;;;74.30;46.10;;;;;;;2.17;100.00;97158.16;102324;1310;71579;-71
2021/11/28 03:11:01;;;;;;;77.30;47.60;;;;;;;2.18;100.00;97158.61;102374;1313;62183;-71
2021/11/28 03:13:34;;;;;;;74.20;46.10;;;;;;;2.18;100.00;97162.12;102333;1310;62228;-70
2021/11/28 03:16:04;;;;;;;79.50;45.70;;;;;;;2.17;100.00;97161.28;102316;1313;77302;-70
2021/11/28 03:18:31;;;;;;;;;;;;;;;2.18;100.00;97160.70;102339;1311;70526;-70
2021/11/28 03:21:05;;;;;;;75.20;44.50;;;;;;;2.18;100.00;97162.08;102334;1313;73098;-70
2021/11/28 03:23:34;;;;;;;73.20;42.60;;;;;;;2.17;100.00;97167.77;102315;1311;62135;-70
2021/11/28 03:26:04;;;;;;;77.40;45.40;;;;;;;2.16;100.00;97165.23;102315;1317;62126;-70
2021/11/28 03:28:31;;;;;;;76.90;43.50;;;;;;;2.16;100.00;97167.86;102299;1310;77291;-70
2021/11/28 03:30:59;;;;;;;79.50;46.90;;;;;;;2.15;100.00;97165.25;102375;1310;69516;-70
2021/11/28 03:33:25;;;;;;;86.20;47.70;;;;;;;2.16;100.00;97164.66;102392;1310;74833;-70
2021/11/28 03:35:52;;;;;;;73.10;45.80;;;;;;;2.18;100.00;97160.66;102384;1314;62167;-72
2021/11/28 03:38:19;;;;;;;74.70;44.70;;;;;;;2.21;100.00;97158.09;102432;1311;62248;-70
2021/11/28 03:40:45;;;;;;;80.90;48.80;;;;;;;2.23;100.00;97160.94;102092;1316;77277;-71
2021/11/28 03:43:12;;;;;;;73.90;45.10;;;;;;;2.25;100.00;97164.50;102514;1313;70824;-71
2021/11/28 03:45:38;;;;;;;75.60;46.60;;;;;;;2.25;100.00;97169.21;102455;1310;62230;-70
2021/11/28 03:48:05;;;;;;;74.50;45.10;;;;;;;2.23;100.00;97160.43;102451;1310;62199;-72
2021/11/28 03:50:32;;;;;;;72.60;43.00;;;;;;;2.20;100.00;97157.43;102508;1314;62012;-71
2021/11/28 03:52:59;;;;;;;78.60;45.30;;;;;;;2.19;100.00;97153.30;101973;1316;75786;-71
2021/11/28 03:55:26;;;;;;;75.40;44.40;;;;;;;2.19;100.00;97156.80;102442;1314;69004;-71
2021/11/28 03:57:52;;;;;;;72.50;43.10;;;;;;;2.19;100.00;97157.33;102358;1311;74554;-70
2021/11/28 04:00:19;;;;;;;71.50;43.70;;;;;;;2.20;100.00;97154.07;102345;1310;62120;-70
2021/11/28 04:02:46;;;;;;;69.90;43.00;;;;;;;2.22;100.00;97154.55;102298;1310;62164;-70
2021/11/28 04:05:14;;;;;;;74.00;44.40;;;;;;;2.19;100.00;97150.12;102340;1310;77530;-71
2021/11/28 04:07:40;;;;;;;72.40;44.30;;;;;;;2.18;100.00;97151.07;102348;1311;70225;-70
2021/11/28 04:10:08;;;;;;;74.70;46.30;;;;;;;2.17;100.00;97142.89;102355;1310;73473;-70
2021/11/28 04:12:35;;;;;;;77.60;47.60;;;;;;;2.19;100.00;97143.13;101911;1316;62341;-70
2021/11/28 04:15:02;;;;;;;85.70;49.30;;;;;;;2.20;100.00;97145.83;102365;1310;62121;-70
2021/11/28 04:17:29;;;;;;;86.30;51.40;;;;;;;2.23;100.00;97145.90;102358;1310;77265;-71
2021/11/28 04:19:57;;;;;;;92.00;59.10;;;;;;;2.23;100.00;97137.99;101931;1316;69569;-72
2021/11/28 04:22:25;;;;;;;121.00;71.30;;;;;;;2.23;100.00;97132.88;102395;1311;73980;-70
2021/11/28 04:24:53;;;;;;;124.50;75.90;;;;;;;2.24;100.00;97125.48;102296;1313;62137;-70
2021/11/28 04:27:20;;;;;;;90.90;53.50;;;;;;;2.23;100.00;97113.61;102380;1311;62025;-70
2021/11/28 04:29:46;;;;;;;90.80;52.80;;;;;;;2.20;100.00;97105.20;102352;1310;76664;-69
2021/11/28 04:32:14;;;;;;;87.90;52.40;;;;;;;2.17;100.00;97101.91;102342;1310;69638;-69
2021/11/28 04:34:42;;;;;;;107.10;56.80;;;;;;;2.12;100.00;97099.05;102346;1310;73530;-69
2021/11/28 04:37:09;;;;;;;102.00;56.60;;;;;;;2.10;100.00;97097.45;102356;1310;62219;-70
2021/11/28 04:39:37;;;;;;;105.60;57.90;;;;;;;2.09;100.00;97088.55;102326;1310;62199;-70
2021/11/28 04:42:04;;;;;;;90.70;55.10;;;;;;;2.09;100.00;97087.69;102254;1310;159467;-70
2021/11/28 04:44:31;;;;;;;108.80;68.60;;;;;;;2.09;100.00;97093.67;101893;1316;70253;-71
2021/11/28 04:46:58;;;;;;;119.90;75.50;;;;;;;2.07;100.00;97089.04;102287;1310;72446;-69
2021/11/28 04:49:25;;;;;;;113.70;69.50;;;;;;;2.06;100.00;97085.94;102325;1311;62222;-69
2021/11/28 04:51:52;;;;;;;106.80;67.30;;;;;;;2.08;100.00;97085.70;102338;1313;62158;-70
2021/11/28 04:54:19;;;;;;;105.20;73.10;;;;;;;2.06;100.00;97091.40;102323;1310;75908;-69
2021/11/28 04:56:45;;;;;;;98.90;63.10;;;;;;;2.05;100.00;97093.20;101891;1316;70254;-70
2021/11/28 04:59:12;;;;;;;92.70;53.50;;;;;;;2.04;100.00;97096.42;101886;1318;72605;-70
2021/11/28 05:01:39;;;;;;;91.30;53.60;;;;;;;2.02;100.00;97096.39;102304;1314;62318;-70
2021/11/28 05:04:05;;;;;;;87.00;52.30;;;;;;;2.01;100.00;97099.62;102367;1311;63495;-69
2021/11/28 05:06:32;;;;;;;92.40;51.80;;;;;;;1.98;100.00;97105.73;102422;1310;76620;-71
2021/11/28 05:08:59;;;;;;;89.10;51.30;;;;;;;1.96;100.00;97103.26;102408;1316;68524;-70
2021/11/28 05:11:25;;;;;;;85.10;51.50;;;;;;;1.91;100.00;97097.60;102399;1311;74529;-70
2021/11/28 05:13:53;;;;;;;92.00;54.80;;;;;;;1.87;100.00;97103.23;102059;1316;62179;-71
2021/11/28 05:16:20;;;;;;;104.40;61.60;;;;;;;1.83;100.00;97106.32;102339;1310;62209;-71
2021/11/28 05:18:46;;;;;;;94.80;56.90;;;;;;;1.81;100.00;97099.77;102126;1311;76566;-71
2021/11/28 05:21:13;;;;;;;100.50;59.20;;;;;;;1.80;100.00;97100.42;102317;1314;69661;-70
2021/11/28 05:23:39;;;;;;;100.80;59.40;;;;;;;1.78;100.00;97100.01;102258;1316;74300;-70
2021/11/28 05:26:06;;;;;;;97.20;59.00;;;;;;;1.79;100.00;97096.42;101963;1313;62218;-70
2021/11/28 05:28:33;;;;;;;99.30;57.90;;;;;;;1.79;100.00;97098.02;102337;1311;62158;-71
2021/11/28 05:30:59;;;;;;;99.30;58.20;;;;;;;1.78;100.00;97096.16;102320;1310;77312;-70
2021/11/28 05:33:26;;;;;;;103.70;58.90;;;;;;;1.78;100.00;97092.65;102329;1311;69356;-70
2021/11/28 05:35:52;;;;;;;105.00;61.90;;;;;;;1.80;100.00;97085.52;102286;1313;73520;-70
2021/11/28 05:38:19;;;;;;;101.80;61.00;;;;;;;1.80;100.00;97079.03;102332;1310;62101;-69
2021/11/28 05:40:46;;;;;;;101.90;60.20;;;;;;;1.79;100.00;97073.52;102365;1310;62074;-70
2021/11/28 05:43:12;;;;;;;111.60;63.90;;;;;;;1.79;100.00;97077.52;102296;1310;75300;-70
2021/11/28 05:45:39;;;;;;;105.00;62.60;;;;;;;1.80;100.00;97080.11;102311;1310;70020;-70
2021/11/28 05:48:06;;;;;;;105.20;62.80;;;;;;;1.80;100.00;97081.33;102317;1310;73591;-70
2021/11/28 05:50:33;;;;;;;100.10;57.20;;;;;;;1.80;100.00;97084.29;102294;1310;62117;-70
2021/11/28 05:53:00;;;;;;;99.90;58.10;;;;;;;1.81;100.00;97079.98;102408;1310;62140;-70
2021/11/28 05:55:27;;;;;;;110.20;59.70;;;;;;;1.84;100.00;97081.23;102348;1317;77354;-71
2021/11/28 05:57:54;;;;;;;106.80;60.40;;;;;;;1.85;100.00;97079.59;101821;1316;69582;-69
2021/11/28 06:00:22;;;;;;;107.20;62.10;;;;;;;1.86;100.00;97076.73;102484;1311;74779;-70
2021/11/28 06:02:48;;;;;;;110.90;61.10;;;;;;;1.86;100.00;97069.71;102368;1314;63730;-70
2021/11/28 06:05:15;;;;;;;103.20;58.00;;;;;;;1.87;100.00;97072.82;102404;1314;62028;-70
2021/11/28 06:07:41;;;;;;;104.90;58.60;;;;;;;1.86;100.00;97075.83;102337;1310;75905;-71
2021/11/28 06:10:09;;;;;;;112.40;62.80;;;;;;;1.86;100.00;97078.61;102354;1314;69596;-70
2021/11/28 06:12:35;;;;;;;103.00;58.60;;;;;;;1.87;100.00;97074.40;101994;1313;72767;-70
2021/11/28 06:15:03;;;;;;;115.60;66.80;;;;;;;1.85;100.00;97071.35;102363;1317;62146;-70
2021/11/28 06:17:29;;;;;;;110.80;60.50;;;;;;;1.84;100.00;97065.79;102440;1311;62112;-70
2021/11/28 06:19:56;;;;;;;110.60;61.50;;;;;;;1.85;100.00;97066.64;102436;1317;76478;-70
2021/11/28 06:22:23;;;;;;;122.20;66.20;;;;;;;1.84;100.00;97060.01;102406;1310;70535;-69
2021/11/28 06:24:49;;;;;;;105.20;60.00;;;;;;;1.85;100.00;97056.97;102403;1310;74511;-70
2021/11/28 06:27:17;;;;;;;118.90;70.80;;;;;;;1.85;100.00;97066.07;102432;1314;62146;-71
2021/11/28 06:29:44;;;;;;;133.50;75.20;;;;;;;1.86;100.00;97069.36;102356;1311;62088;-70
2021/11/28 06:32:11;;;;;;;121.20;69.50;;;;;;;1.87;100.00;97067.54;102556;1316;77310;-70
2021/11/28 06:34:38;;;;;;;107.40;57.30;;;;;;;1.89;100.00;97064.81;102487;1310;69894;-70
2021/11/28 06:37:04;;;;;;;100.30;54.20;;;;;;;1.92;100.00;97066.52;102445;1310;73751;-70
2021/11/28 06:39:31;;;;;;;107.40;57.00;;;;;;;1.94;100.00;97062.39;102393;1317;62121;-71
2021/11/28 06:41:58;;;;;;;106.90;57.40;;;;;;;1.96;100.00;97061.58;102353;1310;62142;-70
2021/11/28 06:44:24;;;;;;;116.00;62.90;;;;;;;1.98;100.00;97062.48;102396;1310;76569;-70
2021/11/28 06:46:51;;;;;;;102.20;55.80;;;;;;;2.00;100.00;97066.23;102435;1314;70619;-71
2021/11/28 06:49:17;;;;;;;109.60;60.60;;;;;;;1.99;100.00;97070.84;102423;1311;73554;-70
2021/11/28 06:51:44;;;;;;;103.30;57.50;;;;;;;1.97;100.00;97069.17;102367;1310;62222;-70
2021/11/28 06:54:11;;;;;;;86.30;50.10;;;;;;;1.99;100.00;97069.29;102297;1310;62225;-70
2021/11/28 06:56:38;;;;;;;87.40;49.00;;;;;;;1.99;100.00;97068.02;102314;1316;77223;-71
2021/11/28 06:59:04;;;;;;;87.70;53.50;;;;;;;1.99;100.00;97065.05;101980;1310;70864;-70
2021/11/28 07:01:31;;;;;;;99.30;60.60;;;;;;;2.00;100.00;97063.59;102334;1316;74945;-68
2021/11/28 07:03:57;;;;;;;103.80;61.00;;;;;;;2.02;100.00;97063.66;102355;1316;62158;-70
2021/11/28 07:06:24;;;;;;;92.00;54.70;;;;;;;2.03;100.00;97054.27;102343;1310;62222;-72
2021/11/28 07:08:50;;;;;;;94.00;54.40;;;;;;;2.04;100.00;97050.02;102336;1314;76707;-70
2021/11/28 07:11:17;;;;;;;89.00;54.30;;;;;;;2.05;100.00;97049.41;102291;1316;62209;-71
2021/11/28 07:13:45;;;;;;;79.10;48.10;;;;;;;2.07;100.00;97046.14;102310;1311;74528;-70
2021/11/28 07:16:12;;;;;;;88.30;47.70;;;;;;;2.08;100.00;97047.12;102361;1317;62099;-69
2021/11/28 07:18:41;;;;;;;86.70;44.70;;;;;;;2.09;100.00;97052.69;102316;1314;62205;-70
2021/11/28 07:21:08;;;;;;;82.00;47.40;;;;;;;2.10;100.00;97056.48;102275;1310;76802;-69
2021/11/28 07:23:35;;;;;;;80.40;44.40;;;;;;;2.11;100.00;97056.25;102353;1314;68627;-70
2021/11/28 07:26:03;;;;;;;106.60;57.50;;;;;;;2.13;100.00;97055.39;102303;1313;73377;-69
2021/11/28 07:28:29;;;;;;;96.10;59.10;;;;;;;2.15;100.00;97052.84;102035;1320;62116;-69
2021/11/28 07:30:56;;;;;;;84.70;48.80;;;;;;;2.15;100.00;97046.17;102097;1314;62184;-79
2021/11/28 07:33:23;;;;;;;91.30;51.30;;;;;;;2.15;100.00;97042.67;102353;1317;75523;-70
2021/11/28 07:35:49;;;;;;;91.30;47.70;;;;;;;2.16;100.00;97039.61;102309;1310;62225;-78
2021/11/28 07:38:16;;;;;;;88.10;47.00;;;;;;;2.19;100.00;97042.73;102367;1311;71569;-78
2021/11/28 07:40:43;;;;;;;86.50;46.50;;;;;;;2.22;100.00;97041.68;102522;1313;62140;-73
2021/11/28 07:43:11;;;;;;;93.60;46.00;;;;;;;2.28;100.00;97039.19;102332;1316;62316;-74
2021/11/28 07:45:38;;;;;;;87.90;47.80;;;;;;;2.35;100.00;97032.59;102435;1311;77027;-72
2021/11/28 07:48:05;;;;;;;94.90;47.50;;;;;;;2.40;100.00;97026.63;102201;1313;70874;-73
2021/11/28 07:50:31;;;;;;;85.40;46.60;;;;;;;2.42;100.00;97021.27;102440;1317;73917;-73
2021/11/28 07:52:58;;;;;;;87.60;47.50;;;;;;;2.44;100.00;97019.21;102381;1310;62083;-73
2021/11/28 07:55:25;;;;;;;93.80;48.80;;;;;;;2.45;100.00;97014.27;102314;1313;62174;-73
2021/11/28 07:57:51;;;;;;;85.30;45.10;;;;;;;2.44;100.00;97013.81;102310;1310;76312;-73
2021/11/28 08:00:18;;;;;;;91.90;47.60;;;;;;;2.41;100.00;97011.84;102338;1316;69245;-75
2021/11/28 08:02:45;;;;;;;86.20;45.00;;;;;;;2.41;100.00;97016.45;102373;1310;74527;-75
2021/11/28 08:05:11;;;;;;;89.50;45.50;;;;;;;2.42;100.00;97022.30;101975;1318;62248;-73
2021/11/28 08:07:38;;;;;;;82.30;45.20;;;;;;;2.45;100.00;97021.77;102366;1316;62134;-74
2021/11/28 08:10:05;;;;;;;81.70;44.40;;;;;;;2.51;100.00;97019.15;102373;1316;77288;-73
2021/11/28 08:12:32;;;;;;;82.30;46.80;;;;;;;2.56;100.00;97022.65;102352;1311;70429;-73
2021/11/28 08:14:58;;;;;;;76.70;44.50;;;;;;;2.60;100.00;97023.23;101997;1318;72700;-73
2021/11/28 08:17:25;;;;;;;82.60;45.00;;;;;;;2.64;100.00;97023.34;102386;1316;62566;-74
2021/11/28 08:19:51;;;;;;;84.40;46.40;;;;;;;2.68;100.00;97026.23;102364;1317;62122;-73
2021/11/28 08:22:18;;;;;;;81.30;48.20;;;;;;;2.72;100.00;97027.88;102320;1317;76291;-74
2021/11/28 08:24:45;;;;;;;78.90;46.40;;;;;;;2.77;100.00;97028.92;102356;1316;69745;-73
2021/11/28 08:27:12;;;;;;;81.30;48.10;;;;;;;2.81;100.00;97028.52;102351;1317;74880;-73
2021/11/28 08:29:40;;;;;;;78.20;49.20;;;;;;;2.87;100.00;97027.60;102385;1310;62116;-73
2021/11/28 08:32:07;;;;;;;78.90;51.50;;;;;;;2.95;100.00;97029.33;102343;1314;62383;-74
2021/11/28 08:34:34;;;;;;;77.10;50.50;;;;;;;3.03;100.00;97038.21;102346;1314;75976;-75
2021/11/28 08:37:00;;;;;;;80.80;51.50;;;;;;;3.11;100.00;97035.80;102342;1317;70022;-73
2021/11/28 08:39:27;;;;;;;87.50;54.30;;;;;;;3.17;100.00;97035.16;102353;1317;73546;-73
2021/11/28 08:41:53;;;;;;;77.60;51.80;;;;;;;3.23;100.00;97035.13;102375;1317;62200;-73
2021/11/28 08:44:20;;;;;;;70.90;47.10;;;;;;;3.22;100.00;97031.52;102444;1317;62416;-74
2021/11/28 08:46:48;;;;;;;71.20;48.10;;;;;;;3.19;100.00;97035.41;102535;1317;76193;-74
2021/11/28 08:49:15;;;;;;;71.30;48.10;;;;;;;3.20;100.00;97024.98;102117;1318;67439;-73
2021/11/28 08:51:42;;;;;;;71.40;49.00;;;;;;;3.23;100.00;97019.14;102490;1317;73512;-72
2021/11/28 08:54:13;;;;;;;67.60;47.30;;;;;;;3.25;100.00;97016.52;102023;1318;62098;-73
2021/11/28 08:56:42;;;;;;;68.50;46.70;;;;;;;3.27;100.00;97015.55;102502;1317;62079;-73
2021/11/28 08:59:10;;;;;;;71.20;48.90;;;;;;;3.24;100.00;97015.73;102444;1316;75517;-73
2021/11/28 09:01:37;;;;;;;77.00;50.00;;;;;;;3.25;100.00;97015.69;102108;1319;70514;-73
2021/11/28 09:04:05;;;;;;;68.70;47.60;;;;;;;3.25;100.00;97012.33;102348;1314;73732;-73
2021/11/28 09:06:32;;;;;;;70.80;47.10;;;;;;;3.29;100.00;97013.45;102408;1314;62206;-72
2021/11/28 09:08:58;;;;;;;69.10;47.00;;;;;;;3.34;100.00;97012.29;101970;1318;62166;-72
2021/11/28 09:11:25;;;;;;;76.10;48.30;;;;;;;3.34;100.00;97013.10;102435;1317;76170;-82
2021/11/28 09:13:52;;;;;;;75.20;50.30;;;;;;;3.31;100.00;97004.05;102535;1317;67701;-73
2021/11/28 09:16:18;;;;;;;69.80;44.80;;;;;;;3.26;100.00;97002.77;101971;1318;73561;-74
2021/11/28 09:18:49;;;;;;;72.80;47.50;;;;;;;3.22;100.00;97001.69;102391;1311;62132;-73
2021/11/28 09:21:17;;;;;;;66.50;42.00;;;;;;;3.19;100.00;96996.65;102452;1316;62261;-72
2021/11/28 09:26:32;;;;;;;73.40;48.80;;;;;;;3.17;100.00;96999.36;102523;1316;70572;-73
2021/11/28 09:29:00;;;;;;;69.90;45.40;;;;;;;3.22;100.00;97000.26;102089;1314;74432;-73
2021/11/28 09:31:29;;;;;;;73.60;45.90;;;;;;;3.22;100.00;96994.63;102266;1317;62152;-73
2021/11/28 09:33:57;;;;;;;79.00;48.60;;;;;;;3.21;100.00;96992.78;102512;1316;62300;-72
2021/11/28 09:36:24;;;;;;;73.60;47.20;;;;;;;3.23;100.00;96983.85;101921;1317;76319;-72
2021/11/28 09:38:50;;;;;;;81.50;48.00;;;;;;;3.26;100.00;96967.36;102413;1317;70441;-73
2021/11/28 09:41:18;;;;;;;80.90;48.00;;;;;;;3.27;100.00;96971.33;102382;1317;62034;-73
2021/11/28 09:43:50;;;;;;;81.40;49.10;;;;;;;3.29;100.00;96969.60;102414;1316;62115;-73
2021/11/28 09:46:20;;;;;;;76.20;46.30;;;;;;;3.35;100.00;96958.33;102405;1310;62244;-72
2021/11/28 09:48:50;;;;;;;77.10;47.10;;;;;;;3.35;100.00;96954.80;102418;1314;77122;-73
2021/11/28 09:51:18;;;;;;;82.80;49.00;;;;;;;3.38;100.00;96949.99;102383;1318;69325;-73
2021/11/28 09:53:44;;;;;;;81.20;49.50;;;;;;;3.42;100.00;96945.55;102376;1317;74500;-77
2021/11/28 09:56:11;;;;;;;75.30;49.30;;;;;;;3.44;100.00;96945.70;102396;1316;62213;-72
2021/11/28 09:58:38;;;;;;;79.70;48.70;;;;;;;3.47;100.00;96936.01;102300;1311;62078;-73
2021/11/28 10:01:05;;;;;;;79.20;49.00;;;;;;;3.52;100.00;96932.14;101962;1317;76389;-72
2021/11/28 10:03:31;;;;;;;82.70;48.50;;;;;;;3.62;100.00;96927.42;101994;1313;68837;-74
2021/11/28 10:05:58;;;;;;;86.40;51.30;;;;;;;3.69;100.00;96926.23;101955;1314;72946;-71
2021/11/28 10:08:25;;;;;;;80.80;50.10;;;;;;;3.74;100.00;96924.78;102333;1317;62156;-72
2021/11/28 10:11:17;;;;;;;78.70;47.40;;;;;;;3.80;100.00;96916.09;102304;1310;62406;-72
2021/11/28 10:13:44;;;;;;;81.10;49.40;;;;;;;3.81;100.00;96913.94;101929;1318;76396;-72
2021/11/28 10:16:11;;;;;;;77.30;45.90;;;;;;;3.82;100.00;96908.03;102554;1313;70567;-72
2021/11/28 10:18:37;;;;;;;74.20;47.00;;;;;;;3.86;100.00;96902.63;102350;1310;73792;-73
2021/11/28 10:21:04;;;;;;;79.40;48.30;;;;;;;3.94;100.00;96901.02;102376;1314;62160;-72
2021/11/28 10:23:31;;;;;;;76.80;46.40;;;;;;;3.95;100.00;96901.96;102490;1310;62199;-72
2021/11/28 10:26:24;;;;;;;76.90;48.90;;;;;;;3.92;100.00;96906.41;102317;1314;76024;-73
2021/11/28 10:29:09;;;;;;;74.00;47.10;;;;;;;3.89;100.00;96901.92;101653;1323;69337;-72
2021/11/28 10:32:02;;;;;;;79.30;49.10;;;;;;;3.85;100.00;96903.42;101327;1323;74588;-72
2021/11/28 10:34:33;;;;;;;88.80;52.40;;;;;;;3.80;100.00;96896.97;100651;1333;62268;-72
2021/11/28 10:37:06;;;;;;;84.20;52.90;;;;;;;3.73;100.00;96893.20;100715;1333;62297;-72
2021/11/28 10:39:44;;;;;;;90.90;53.60;;;;;;;3.69;100.00;96888.61;100573;1328;73574;-72
2021/11/28 10:42:24;;;;;;;93.70;56.30;;;;;;;3.66;100.00;96878.86;100654;1327;70108;-72
2021/11/28 10:45:18;;;;;;;93.10;55.90;;;;;;;3.65;100.00;96884.48;100667;1332;74857;-73
2021/11/28 10:47:58;;;;;;;84.90;52.70;;;;;;;3.63;100.00;96882.08;100195;1334;62269;-72
2021/11/28 10:50:31;;;;;;;85.70;52.90;;;;;;;3.58;100.00;96874.14;100169;1337;62272;-72
2021/11/28 10:53:30;;;;;;;87.50;52.60;;;;;;;3.56;100.00;96869.06;100346;1336;78054;-72
2021/11/28 10:55:59;;;;;;;87.10;51.80;;;;;;;3.53;100.00;96876.06;99809;1342;68593;-71
2021/11/28 10:58:30;;;;;;;85.30;51.00;;;;;;;3.54;100.00;96876.60;99898;1339;73838;-71
2021/11/28 11:01:00;;;;;;;82.80;51.70;;;;;;;3.52;100.00;96881.80;99870;1345;62801;-71
2021/11/28 11:03:35;;;;;;;84.00;53.50;;;;;;;3.49;100.00;96875.14;99830;1343;62387;-71
2021/11/28 11:06:18;;;;;;;88.90;55.50;;;;;;;3.48;100.00;96874.85;100012;1338;76281;-72
2021/11/28 11:08:47;;;;;;;90.10;54.70;;;;;;;3.49;100.00;96870.38;100354;1337;69332;-71
2021/11/28 11:11:16;;;;;;;89.60;55.50;;;;;;;3.52;100.00;96868.60;100495;1333;74781;-70
2021/11/28 11:13:56;;;;;;;90.60;56.30;;;;;;;3.53;100.00;96865.39;101039;1331;62209;-71
2021/11/28 11:16:34;;;;;;;84.00;51.70;;;;;;;3.53;100.00;96862.92;100927;1327;62158;-70
2021/11/28 11:19:31;;;;;;;92.60;55.80;;;;;;;3.51;100.00;96860.23;100953;1331;76898;-81